createdAt,value
2022-10-02T00:01:47.531Z,11.20
2022-10-02T00:04:18.816Z,11.10
2022-10-02T00:06:47.611Z,11.10
2022-10-02T00:09:24.760Z,11.10
2022-10-02T00:11:54.299Z,11.10
2022-10-02T00:14:21.341Z,11.10
2022-10-02T00:16:50.498Z,11.00
2022-10-02T00:19:18.544Z,10.90
2022-10-02T00:22:20.982Z,10.90
2022-10-02T00:25:02.530Z,10.90
2022-10-02T00:27:40.963Z,10.80
2022-10-02T00:30:10.673Z,10.80
2022-10-02T00:32:50.249Z,10.80
2022-10-02T00:35:35.729Z,10.80
2022-10-02T00:38:02.785Z,10.80
2022-10-02T00:40:57.207Z,11.00
2022-10-02T00:43:26.202Z,11.00
2022-10-02T00:46:29.768Z,10.90
2022-10-02T00:49:10.154Z,10.90
2022-10-02T00:51:45.289Z,10.90
2022-10-02T00:54:24.536Z,10.80
2022-10-02T00:57:09.401Z,10.90
2022-10-02T00:59:42.785Z,10.90
2022-10-02T01:02:31.018Z,10.90
2022-10-02T01:05:02.407Z,10.80
2022-10-02T01:07:29.466Z,10.90
2022-10-02T01:09:56.569Z,10.90
2022-10-02T01:12:23.734Z,10.80
2022-10-02T01:14:50.872Z,10.80
2022-10-02T01:17:24.929Z,10.80
2022-10-02T01:19:52.297Z,10.70
2022-10-02T01:22:31.215Z,10.70
2022-10-02T01:24:59.134Z,10.70
2022-10-02T01:27:26.142Z,10.70
2022-10-02T01:29:56.446Z,10.70
2022-10-02T01:32:26.796Z,10.90
2022-10-02T01:34:54.227Z,10.80
2022-10-02T01:37:22.500Z,10.80
2022-10-02T01:39:49.691Z,10.80
2022-10-02T01:42:16.643Z,10.70
2022-10-02T01:44:43.745Z,10.70
2022-10-02T01:47:17.688Z,10.70
2022-10-02T01:49:55.716Z,10.70
2022-10-02T01:52:42.946Z,10.80
2022-10-02T01:55:27.859Z,10.70
2022-10-02T01:58:11.142Z,10.70
2022-10-02T02:01:06.220Z,10.70
2022-10-02T02:04:18.324Z,10.60
2022-10-02T02:06:59.604Z,10.50
2022-10-02T02:09:35.203Z,10.60
2022-10-02T02:12:21.930Z,10.60
2022-10-02T02:14:52.238Z,10.60
2022-10-02T02:17:28.932Z,10.60
2022-10-02T02:20:04.416Z,10.70
2022-10-02T02:22:33.650Z,10.70
2022-10-02T02:25:12.827Z,10.70
2022-10-02T02:27:42.194Z,10.70
2022-10-02T02:30:12.220Z,10.70
2022-10-02T02:33:01.581Z,10.70
2022-10-02T02:35:40.311Z,10.70
2022-10-02T02:38:28.000Z,10.70
2022-10-02T02:40:56.988Z,10.70
2022-10-02T02:43:36.173Z,10.70
2022-10-02T02:46:08.331Z,10.70
2022-10-02T02:48:44.400Z,10.60
2022-10-02T02:51:15.034Z,10.50
2022-10-02T02:53:47.431Z,10.70
2022-10-02T02:56:15.245Z,10.70
2022-10-02T02:58:42.345Z,10.70
2022-10-02T03:01:10.001Z,10.60
2022-10-02T03:03:37.116Z,10.60
2022-10-02T03:06:23.754Z,10.80
2022-10-02T03:08:51.807Z,10.80
2022-10-02T03:11:28.217Z,10.80
2022-10-02T03:14:01.570Z,10.80
2022-10-02T03:16:43.842Z,10.80
2022-10-02T03:19:38.692Z,10.90
2022-10-02T03:22:11.924Z,10.80
2022-10-02T03:24:46.223Z,10.90
2022-10-02T03:27:35.242Z,11.00
2022-10-02T03:30:04.478Z,11.10
2022-10-02T03:32:31.697Z,11.00
2022-10-02T03:34:58.795Z,10.90
2022-10-02T03:37:25.987Z,10.90
2022-10-02T03:39:53.968Z,10.90
2022-10-02T03:42:24.551Z,10.90
2022-10-02T03:44:51.760Z,11.00
2022-10-02T03:47:18.836Z,10.90
2022-10-02T03:49:46.702Z,10.90
2022-10-02T03:52:18.095Z,10.80
2022-10-02T03:54:45.450Z,11.00
2022-10-02T03:57:15.590Z,11.00
2022-10-02T03:59:53.427Z,11.00
2022-10-02T04:02:51.154Z,11.00
2022-10-02T04:05:40.575Z,10.90
2022-10-02T04:08:33.123Z,10.90
2022-10-02T04:11:17.613Z,10.90
2022-10-02T04:13:49.031Z,11.00
2022-10-02T04:16:16.098Z,11.10
2022-10-02T04:18:46.222Z,11.20
2022-10-02T04:21:23.345Z,11.10
2022-10-02T04:24:30.074Z,11.20
2022-10-02T04:27:00.142Z,11.30
2022-10-02T04:29:28.979Z,11.20
2022-10-02T04:32:14.293Z,11.20
2022-10-02T04:34:41.820Z,11.30
2022-10-02T04:37:15.631Z,11.20
2022-10-02T04:39:46.855Z,11.30
2022-10-02T04:42:22.471Z,11.30
2022-10-02T04:45:10.379Z,11.20
2022-10-02T04:48:03.656Z,11.30
2022-10-02T04:50:48.194Z,11.30
2022-10-02T04:53:25.725Z,11.20
2022-10-02T04:55:55.632Z,11.20
2022-10-02T04:58:37.877Z,11.40
2022-10-02T05:01:29.362Z,11.30
2022-10-02T05:04:15.239Z,11.50
2022-10-02T05:06:48.193Z,11.30
2022-10-02T05:09:27.125Z,11.40
2022-10-02T05:12:09.250Z,11.30
2022-10-02T05:14:59.146Z,11.50
2022-10-02T05:17:29.269Z,11.40
2022-10-02T05:20:10.235Z,11.40
2022-10-02T05:23:03.026Z,11.40
2022-10-02T05:25:51.259Z,11.40
2022-10-02T05:28:41.764Z,11.60
2022-10-02T05:31:18.126Z,11.50
2022-10-02T05:34:21.350Z,11.40
2022-10-02T05:36:54.191Z,11.40
2022-10-02T05:39:33.818Z,11.50
2022-10-02T05:42:09.098Z,11.50
2022-10-02T05:44:47.838Z,11.60
2022-10-02T05:47:32.155Z,11.60
2022-10-02T05:50:01.137Z,11.50
2022-10-02T05:52:38.307Z,11.60
2022-10-02T05:55:23.854Z,11.60
2022-10-02T05:58:02.033Z,11.60
2022-10-02T06:00:46.217Z,11.70
2022-10-02T06:03:34.324Z,11.50
2022-10-02T06:06:15.179Z,11.60
2022-10-02T06:09:19.556Z,11.60
2022-10-02T06:11:55.444Z,11.60
2022-10-02T06:14:31.031Z,11.60
2022-10-02T06:17:22.523Z,11.60
2022-10-02T06:20:04.092Z,11.70
2022-10-02T06:23:12.921Z,11.80
2022-10-02T06:25:47.654Z,11.70
2022-10-02T06:28:34.240Z,11.70
2022-10-02T06:31:19.481Z,11.80
2022-10-02T06:33:47.224Z,11.80
2022-10-02T06:36:24.546Z,11.90
2022-10-02T06:39:22.515Z,11.80
2022-10-02T06:42:04.824Z,11.80
2022-10-02T06:44:53.395Z,11.90
2022-10-02T06:47:35.614Z,11.90
2022-10-02T06:50:24.061Z,11.80
2022-10-02T06:53:13.168Z,11.80
2022-10-02T06:56:03.221Z,11.90
2022-10-02T06:59:00.157Z,11.90
2022-10-02T07:01:39.218Z,11.90
2022-10-02T07:04:15.145Z,11.90
2022-10-02T07:06:47.863Z,12.00
2022-10-02T07:09:32.136Z,12.00
2022-10-02T07:12:04.350Z,12.00
2022-10-02T07:14:35.959Z,12.00
2022-10-02T07:17:30.408Z,12.10
2022-10-02T07:19:57.924Z,11.90
2022-10-02T07:22:47.641Z,12.00
2022-10-02T07:25:26.728Z,11.90
2022-10-02T07:28:10.676Z,12.00
2022-10-02T07:31:07.516Z,12.10
2022-10-02T07:34:02.825Z,12.20
2022-10-02T07:36:50.354Z,12.20
2022-10-02T07:39:40.460Z,12.20
2022-10-02T07:42:17.086Z,12.20
2022-10-02T07:44:53.649Z,12.10
2022-10-02T07:47:55.821Z,12.10
2022-10-02T07:50:39.804Z,12.10
2022-10-02T07:53:22.186Z,12.10
2022-10-02T07:55:53.913Z,12.10
2022-10-02T07:58:37.725Z,12.20
2022-10-02T08:01:08.644Z,12.10
2022-10-02T08:03:52.657Z,12.20
2022-10-02T08:06:19.951Z,12.30
2022-10-02T08:08:57.117Z,12.30
2022-10-02T08:11:32.666Z,12.30
2022-10-02T08:14:18.483Z,12.30
2022-10-02T08:16:50.970Z,12.20
2022-10-02T08:19:37.275Z,12.30
2022-10-02T08:22:11.920Z,12.10
2022-10-02T08:24:43.927Z,12.30
2022-10-02T08:27:16.945Z,12.20
2022-10-02T08:30:03.201Z,12.30
2022-10-02T08:32:36.354Z,12.30
2022-10-02T08:35:12.785Z,12.30
2022-10-02T08:37:49.661Z,12.30
2022-10-02T08:40:22.920Z,12.40
2022-10-02T08:43:05.021Z,12.40
2022-10-02T08:45:44.032Z,12.40
2022-10-02T08:48:23.974Z,12.40
2022-10-02T08:51:02.940Z,12.50
2022-10-02T08:53:51.923Z,12.50
2022-10-02T08:56:25.312Z,12.50
2022-10-02T08:59:07.235Z,12.50
2022-10-02T09:02:05.639Z,12.50
2022-10-02T09:04:44.516Z,12.40
2022-10-02T09:07:32.774Z,12.50
2022-10-02T09:10:21.489Z,12.60
2022-10-02T09:13:15.086Z,12.60
2022-10-02T09:15:55.183Z,12.60
2022-10-02T09:18:31.300Z,12.60
2022-10-02T09:21:14.514Z,12.60
2022-10-02T09:24:00.090Z,12.70
2022-10-02T09:26:47.772Z,12.70
2022-10-02T09:29:50.532Z,12.80
2022-10-02T09:32:45.217Z,12.90
2022-10-02T09:36:03.311Z,12.90
2022-10-02T09:38:44.976Z,12.80
2022-10-02T09:41:50.457Z,12.70
2022-10-02T09:44:35.330Z,12.80
2022-10-02T09:47:20.810Z,12.90
2022-10-02T09:50:24.751Z,13.00
2022-10-02T09:53:07.027Z,12.90
2022-10-02T09:56:04.626Z,12.80
2022-10-02T09:58:37.753Z,12.70
2022-10-02T10:01:34.877Z,12.80
2022-10-02T10:04:22.952Z,12.90
2022-10-02T10:07:19.350Z,12.90
2022-10-02T10:10:19.766Z,12.90
2022-10-02T10:12:55.170Z,12.90
2022-10-02T10:15:30.237Z,12.90
2022-10-02T10:18:28.165Z,12.90
2022-10-02T10:21:19.312Z,12.90
2022-10-02T10:24:01.599Z,12.90
2022-10-02T10:26:54.006Z,12.90
2022-10-02T10:29:49.284Z,12.80
2022-10-02T10:32:28.328Z,12.90
2022-10-02T10:35:11.648Z,12.90
2022-10-02T10:38:20.736Z,12.90
2022-10-02T10:41:12.384Z,12.90
2022-10-02T10:43:51.831Z,12.90
2022-10-02T10:46:59.565Z,13.00
2022-10-02T10:49:33.448Z,13.00
2022-10-02T10:52:14.348Z,13.20
2022-10-02T10:54:56.323Z,13.30
2022-10-02T10:57:35.531Z,13.10
2022-10-02T11:00:21.316Z,13.20
2022-10-02T11:02:56.980Z,13.30
2022-10-02T11:06:03.948Z,13.40
2022-10-02T11:09:15.930Z,13.40
2022-10-02T11:11:45.933Z,13.30
2022-10-02T11:14:30.448Z,13.30
2022-10-02T11:17:25.131Z,13.40
2022-10-02T11:20:13.455Z,13.40
2022-10-02T11:23:01.996Z,13.30
2022-10-02T11:26:02.832Z,13.30
2022-10-02T11:28:38.730Z,13.40
2022-10-02T11:31:37.213Z,13.20
2022-10-02T11:34:37.793Z,13.30
2022-10-02T11:37:13.673Z,13.30
2022-10-02T11:40:05.278Z,13.30
2022-10-02T11:42:45.166Z,13.10
2022-10-02T11:45:34.033Z,13.10
2022-10-02T11:48:24.233Z,13.20
2022-10-02T11:51:16.198Z,13.10
2022-10-02T11:53:52.612Z,13.20
2022-10-02T11:56:29.658Z,13.30
2022-10-02T11:59:02.644Z,13.20
2022-10-02T12:01:45.345Z,13.30
2022-10-02T12:04:34.106Z,13.20
2022-10-02T12:07:25.269Z,13.30
2022-10-02T12:10:05.625Z,13.30
2022-10-02T12:12:44.836Z,13.30
2022-10-02T12:15:15.400Z,13.30
2022-10-02T12:18:06.924Z,13.20
2022-10-02T12:21:19.519Z,13.20
2022-10-02T12:24:24.037Z,13.20
2022-10-02T12:26:59.609Z,13.30
2022-10-02T12:29:52.939Z,13.40
2022-10-02T12:33:08.307Z,13.40
2022-10-02T12:35:56.943Z,13.40
2022-10-02T12:38:51.245Z,13.40
2022-10-02T12:41:35.929Z,13.50
2022-10-02T12:44:18.790Z,13.50
2022-10-02T12:47:07.035Z,13.50
2022-10-02T12:49:55.052Z,13.60
2022-10-02T12:52:36.854Z,13.50
2022-10-02T12:55:18.863Z,13.50
2022-10-02T12:57:52.234Z,13.40
2022-10-02T13:00:25.897Z,13.40
2022-10-02T13:03:05.778Z,13.50
2022-10-02T13:05:50.877Z,13.50
2022-10-02T13:08:41.596Z,13.70
2022-10-02T13:11:27.257Z,13.70
2022-10-02T13:14:31.387Z,13.70
2022-10-02T13:17:09.732Z,13.80
2022-10-02T13:19:50.496Z,13.90
2022-10-02T13:22:20.766Z,13.90
2022-10-02T13:25:16.574Z,13.80
2022-10-02T13:28:13.887Z,13.70
2022-10-02T13:30:53.601Z,13.60
2022-10-02T13:33:50.462Z,13.60
2022-10-02T13:36:24.667Z,13.60
2022-10-02T13:39:17.283Z,13.50
2022-10-02T13:41:47.097Z,13.40
2022-10-02T13:44:38.750Z,13.30
2022-10-02T13:47:17.882Z,13.40
2022-10-02T13:49:56.875Z,13.30
2022-10-02T13:52:44.782Z,13.30
2022-10-02T13:55:47.227Z,13.30
2022-10-02T13:58:25.899Z,13.30
2022-10-02T14:01:11.765Z,13.20
2022-10-02T14:04:07.583Z,13.20
2022-10-02T14:06:48.324Z,13.20
2022-10-02T14:09:37.025Z,13.10
2022-10-02T14:12:23.400Z,13.10
2022-10-02T14:15:02.927Z,13.20
2022-10-02T14:17:36.006Z,13.10
2022-10-02T14:20:21.153Z,13.10
2022-10-02T14:23:07.600Z,13.20
2022-10-02T14:25:59.356Z,13.10
2022-10-02T14:29:02.054Z,13.10
2022-10-02T14:31:46.597Z,13.00
2022-10-02T14:34:16.667Z,13.10
2022-10-02T14:36:56.166Z,13.00
2022-10-02T14:39:35.983Z,13.10
2022-10-02T14:42:27.298Z,13.10
2022-10-02T14:45:36.389Z,13.00
2022-10-02T14:48:40.916Z,13.00
2022-10-02T14:51:13.803Z,13.00
2022-10-02T14:53:45.828Z,13.00
2022-10-02T14:56:29.167Z,13.00
2022-10-02T14:59:09.978Z,12.90
2022-10-02T15:01:44.098Z,13.00
2022-10-02T15:04:28.999Z,13.10
2022-10-02T15:07:13.075Z,13.10
2022-10-02T15:09:57.511Z,13.00
2022-10-02T15:12:43.850Z,13.00
2022-10-02T15:15:27.989Z,13.00
2022-10-02T15:18:17.571Z,12.90
2022-10-02T15:21:15.432Z,12.90
2022-10-02T15:23:51.734Z,12.80
2022-10-02T15:26:44.137Z,12.80
2022-10-02T15:29:44.790Z,12.70
2022-10-02T15:32:31.378Z,12.60
2022-10-02T15:35:07.803Z,12.60
2022-10-02T15:37:47.071Z,12.60
2022-10-02T15:40:30.007Z,12.60
2022-10-02T15:42:58.793Z,12.60
2022-10-02T15:45:44.645Z,12.50
2022-10-02T15:48:48.983Z,12.50
2022-10-02T15:51:21.461Z,12.50
2022-10-02T15:53:54.324Z,12.50
2022-10-02T15:56:28.125Z,12.50
2022-10-02T15:59:07.511Z,12.50
2022-10-02T16:01:43.667Z,12.50
2022-10-02T16:04:34.340Z,12.50
2022-10-02T16:07:36.708Z,12.50
2022-10-02T16:10:27.186Z,12.50
2022-10-02T16:13:10.069Z,12.50
2022-10-02T16:15:53.263Z,12.50
2022-10-02T16:18:29.270Z,12.50
2022-10-02T16:21:08.619Z,12.50
2022-10-02T16:23:35.726Z,12.40
2022-10-02T16:26:27.475Z,12.50
2022-10-02T16:29:10.009Z,12.40
2022-10-02T16:32:04.827Z,12.40
2022-10-02T16:35:02.908Z,12.40
2022-10-02T16:38:01.536Z,12.30
2022-10-02T16:40:43.216Z,12.40
2022-10-02T16:43:32.056Z,12.40
2022-10-02T16:46:13.534Z,12.30
2022-10-02T16:48:50.050Z,12.20
2022-10-02T16:51:54.436Z,12.20
2022-10-02T16:54:49.144Z,12.20
2022-10-02T16:57:47.481Z,12.20
2022-10-02T17:00:39.629Z,12.20
2022-10-02T17:03:35.963Z,12.20
2022-10-02T17:06:16.483Z,12.30
2022-10-02T17:09:07.606Z,12.20
2022-10-02T17:11:49.004Z,12.20
2022-10-02T17:14:39.492Z,12.20
2022-10-02T17:17:20.652Z,12.20
2022-10-02T17:19:48.886Z,12.20
2022-10-02T17:22:33.252Z,12.30
2022-10-02T17:25:17.912Z,12.20
2022-10-02T17:27:58.252Z,12.20
2022-10-02T17:30:27.524Z,12.20
2022-10-02T17:33:13.484Z,12.10
2022-10-02T17:35:59.472Z,12.10
2022-10-02T17:38:36.485Z,12.00
2022-10-02T17:41:32.437Z,12.00
2022-10-02T17:44:02.491Z,12.10
2022-10-02T17:46:56.707Z,12.20
2022-10-02T17:49:45.735Z,12.20
2022-10-02T17:52:52.408Z,12.30
2022-10-02T17:56:15.323Z,12.20
2022-10-02T17:58:56.690Z,12.20
2022-10-02T18:01:46.361Z,12.10
2022-10-02T18:04:19.344Z,12.00
2022-10-02T18:07:05.302Z,12.00
2022-10-02T18:09:38.397Z,12.00
2022-10-02T18:12:18.771Z,12.00
2022-10-02T18:14:48.912Z,12.10
2022-10-02T18:17:29.593Z,12.10
2022-10-02T18:20:05.610Z,12.10
2022-10-02T18:22:40.143Z,12.00
2022-10-02T18:25:14.382Z,11.90
2022-10-02T18:28:00.398Z,11.90
2022-10-02T18:30:38.423Z,11.90
2022-10-02T18:33:25.754Z,11.90
2022-10-02T18:35:55.550Z,11.90
2022-10-02T18:38:38.090Z,12.10
2022-10-02T18:41:27.403Z,12.00
2022-10-02T18:43:56.376Z,12.10
2022-10-02T18:46:42.171Z,12.00
2022-10-02T18:49:47.085Z,11.90
2022-10-02T18:52:41.903Z,11.90
2022-10-02T18:55:34.691Z,11.90
2022-10-02T18:58:25.103Z,12.00
2022-10-02T19:01:01.310Z,11.80
2022-10-02T19:03:52.225Z,11.70
2022-10-02T19:06:26.967Z,11.80
2022-10-02T19:09:09.017Z,11.80
2022-10-02T19:12:06.579Z,11.80
2022-10-02T19:14:41.687Z,11.70
2022-10-02T19:17:19.623Z,11.70
2022-10-02T19:19:46.757Z,11.90
2022-10-02T19:22:23.843Z,11.90
2022-10-02T19:24:53.712Z,11.90
2022-10-02T19:27:25.630Z,11.90
2022-10-02T19:29:57.938Z,11.90
2022-10-02T19:32:28.035Z,12.00
2022-10-02T19:35:01.627Z,12.00
2022-10-02T19:37:28.741Z,11.90
2022-10-02T19:39:56.405Z,11.90
2022-10-02T19:42:28.480Z,11.90
2022-10-02T19:45:08.468Z,11.80
2022-10-02T19:47:41.739Z,11.80
2022-10-02T19:50:19.836Z,11.90
2022-10-02T19:52:52.735Z,11.90
2022-10-02T19:55:32.130Z,11.90
2022-10-02T19:58:19.300Z,11.80
2022-10-02T20:00:46.609Z,11.80
2022-10-02T20:03:19.033Z,11.80
2022-10-02T20:05:46.159Z,11.80
2022-10-02T20:08:17.451Z,11.90
2022-10-02T20:10:56.304Z,12.00
2022-10-02T20:13:29.342Z,12.00
2022-10-02T20:16:16.997Z,12.00
2022-10-02T20:18:44.389Z,12.10
2022-10-02T20:21:38.203Z,12.10
2022-10-02T20:24:07.843Z,12.00
2022-10-02T20:26:35.842Z,11.90
2022-10-02T20:29:05.744Z,11.90
2022-10-02T20:31:40.676Z,11.90
2022-10-02T20:34:14.035Z,11.90
2022-10-02T20:37:09.154Z,12.00
2022-10-02T20:39:44.083Z,12.00
2022-10-02T20:42:23.564Z,12.00
2022-10-02T20:44:51.139Z,12.00
2022-10-02T20:47:30.121Z,12.10
2022-10-02T20:50:33.004Z,12.00
2022-10-02T20:53:21.283Z,12.00
2022-10-02T20:55:57.021Z,11.90
2022-10-02T20:58:48.285Z,11.90
2022-10-02T21:01:21.935Z,11.90
2022-10-02T21:04:20.130Z,11.90
2022-10-02T21:07:05.806Z,11.90
2022-10-02T21:10:04.340Z,11.90
2022-10-02T21:12:42.989Z,12.00
2022-10-02T21:15:24.220Z,12.00
2022-10-02T21:18:07.064Z,12.00
2022-10-02T21:21:07.643Z,12.00
2022-10-02T21:23:53.373Z,11.90
2022-10-02T21:26:52.452Z,12.00
2022-10-02T21:29:37.147Z,11.90
2022-10-02T21:32:33.159Z,11.90
2022-10-02T21:35:37.418Z,11.90
2022-10-02T21:38:28.364Z,11.90
2022-10-02T21:41:32.088Z,11.80
2022-10-02T21:44:03.389Z,11.80
2022-10-02T21:47:00.747Z,11.90
2022-10-02T21:49:42.938Z,11.80
2022-10-02T21:52:45.873Z,11.80
2022-10-02T21:55:46.756Z,11.80
2022-10-02T21:58:45.727Z,11.90
2022-10-02T22:01:57.433Z,11.80
2022-10-02T22:05:03.508Z,11.70
2022-10-02T22:07:47.559Z,11.70
2022-10-02T22:10:39.148Z,11.80
2022-10-02T22:13:18.359Z,11.80
2022-10-02T22:16:07.753Z,11.70
2022-10-02T22:18:39.513Z,11.80
2022-10-02T22:21:32.397Z,11.80
2022-10-02T22:24:18.278Z,11.80
2022-10-02T22:26:48.094Z,11.90
2022-10-02T22:29:25.603Z,11.80
2022-10-02T22:32:49.542Z,11.90
2022-10-02T22:35:54.057Z,11.90
2022-10-02T22:38:31.630Z,11.90
2022-10-02T22:41:07.024Z,11.90
2022-10-02T22:43:56.030Z,11.90
2022-10-02T22:46:44.415Z,11.90
2022-10-02T22:49:17.120Z,11.80
2022-10-02T22:52:00.399Z,11.90
2022-10-02T22:54:46.058Z,11.90
2022-10-02T22:57:27.775Z,12.00
2022-10-02T23:00:02.397Z,11.90
2022-10-02T23:02:42.565Z,12.00
2022-10-02T23:05:14.456Z,11.90
2022-10-02T23:07:49.858Z,11.90
2022-10-02T23:10:33.685Z,11.90
2022-10-02T23:13:24.176Z,11.90
2022-10-02T23:15:58.841Z,11.80
2022-10-02T23:18:32.109Z,11.90
2022-10-02T23:21:05.251Z,11.80
2022-10-02T23:23:58.791Z,11.90
2022-10-02T23:26:40.629Z,11.90
2022-10-02T23:29:13.677Z,11.90
2022-10-02T23:32:04.461Z,11.80
2022-10-02T23:34:46.898Z,11.80
2022-10-02T23:37:24.803Z,11.70
2022-10-02T23:40:10.453Z,11.80
2022-10-02T23:42:45.572Z,11.70
2022-10-02T23:45:21.527Z,11.70
2022-10-02T23:47:59.450Z,11.70
2022-10-02T23:50:39.070Z,11.70
2022-10-02T23:53:33.404Z,11.70
2022-10-02T23:56:46.367Z,11.70
2022-10-02T23:59:18.136Z,11.70
